VTCC Airport Information

Runway Information
Runway 18 Length 10171 ft width 148 ft
Elevation 1036 ft Threshold 0 ft Heading 180
Runway 36 Length 10171 ft Width 148 ft
Elevation 1007 ft Threshold 0 ft Heading 0
Airport Frequencies
Type APP Name APP Frequency 129.6 MHZ
Type ATIS Name ATIS Frequency 127.2 MHZ
Type GND Name GND Frequency 121.9 MHZ
Type TWR Name TWR Frequency 118.1 MHZ
Airport Navaids
Type NDB Name Chiang Mai Frequency 255 KHZ
Type TACAN Name Chiang Mai Frequency 116200 KHZ
Type VOR-DME Name Chiang Mai Frequency 116900 KHZ
Airport Weather Information & NOTAM
ADDS - METARS form results

(0741 UTC 12 August 2020)
Data provider http://aviationweather.gov/metar/data/
 
METAR text: VTCC 120730Z 14003KT 9999 FEW025CB BKN035 32/23 Q1005 NOSIG
Conditions at: VTCC (CHIANG MAI(CIV/A, TH) observed 0730 UTC 12 August 2020
Temperature: 32.0°C (90°F)
Dewpoint: 23.0°C (73°F) [RH = 59%]
Pressure (altimeter): 29.68 inches Hg (1005.0 mb)
Winds: from the SE (140 degrees) at 3 MPH (3 knots; 1.5 m/s)
Visibility: 6 or more miles (10+ km)
Ceiling: 3500 feet AGL
Clouds: few clouds at 2500 feet AGL
broken clouds at 3500 feet AGL
Weather: no significant weather observed at this time

METAR text: VTCC 120700Z 15004KT 100V200 9999 FEW025CB BKN035 31/23 Q1006 NOSIG
Conditions at: VTCC (CHIANG MAI(CIV/A, TH) observed 0700 UTC 12 August 2020
Temperature: 31.0°C (88°F)
Dewpoint: 23.0°C (73°F) [RH = 63%]
Pressure (altimeter): 29.70 inches Hg (1006.0 mb)
Winds: from the SSE (150 degrees) at 5 MPH (4 knots; 2.1 m/s)
Visibility: 6 or more miles (10+ km)
Ceiling: 3500 feet AGL
Clouds: few clouds at 2500 feet AGL
broken clouds at 3500 feet AGL
Weather: no significant weather observed at this time

Forecast for: VTCC (CHIANG MAI(CIV/A, TH)
Text: TAF VTCC 120500Z 1206/1312 20005KT 9999 BKN035
Forecast period: 0600 UTC 12 August 2020 to 1200 UTC 13 August 2020
Forecast type: FROM: standard forecast or significant change
Winds: from the SSW (200 degrees) at 6 MPH (5 knots; 2.6 m/s)
Visibility: 6 or more miles (10+ km)
Ceiling: 3500 feet AGL
Clouds: broken clouds at 3500 feet AGL
Weather: no significant weather forecast for this period
Text: TEMPO 1208/1213 20015G30KT 4000 TSRA FEW018CB BKN025
Forecast period: 0800 to 1300 UTC 12 August 2020
Forecast type: TEMPORARY: The following changes expected for less than half the time period
Winds: from the SSW (200 degrees) at 17 MPH (15 knots; 7.7 m/s)
gusting to 34 MPH (30 knots; 15.4 m/s)
Visibility: 2.49 miles (4.01 km)
Ceiling: 2500 feet AGL
Clouds: few clouds at 1800 feet AGL
broken clouds at 2500 feet AGL
Weather: TSRA  (rain associated with thunderstorm(s))